sensor_id;sensor_type;location;lat;lon;timestamp;P1;durP1;ratioP1;P2;durP2;ratioP2
19364;SDS011;9818;48.382;10.850;2022-12-07T01:20:36;4.40;;;3.87;;
19364;SDS011;9818;48.382;10.850;2022-12-07T01:23:05;6.87;;;4.87;;
19364;SDS011;9818;48.382;10.850;2022-12-07T01:25:34;5.47;;;4.17;;
19364;SDS011;9818;48.382;10.850;2022-12-07T01:28:02;5.43;;;3.97;;
19364;SDS011;9818;48.382;10.850;2022-12-07T01:30:31;6.00;;;4.30;;
19364;SDS011;9818;48.382;10.850;2022-12-07T01:33:00;6.03;;;4.60;;
19364;SDS011;9818;48.382;10.850;2022-12-07T01:35:29;5.90;;;4.30;;
19364;SDS011;9818;48.382;10.850;2022-12-07T01:38:00;5.43;;;4.27;;
19364;SDS011;9818;48.382;10.850;2022-12-07T01:40:28;6.03;;;4.67;;
19364;SDS011;9818;48.382;10.850;2022-12-07T01:42:57;6.00;;;4.90;;
19364;SDS011;9818;48.382;10.850;2022-12-07T01:48:13;6.30;;;4.43;;
19364;SDS011;9818;48.382;10.850;2022-12-07T01:50:45;5.80;;;4.30;;
19364;SDS011;9818;48.382;10.850;2022-12-07T01:53:20;4.80;;;4.30;;
19364;SDS011;9818;48.382;10.850;2022-12-07T01:55:52;4.50;;;3.97;;
19364;SDS011;9818;48.382;10.850;2022-12-07T01:58:22;5.17;;;4.50;;
19364;SDS011;9818;48.382;10.850;2022-12-07T02:00:51;5.73;;;4.43;;
19364;SDS011;9818;48.382;10.850;2022-12-07T02:03:22;5.57;;;4.33;;
19364;SDS011;9818;48.382;10.850;2022-12-07T02:05:55;5.13;;;4.37;;
19364;SDS011;9818;48.382;10.850;2022-12-07T02:08:27;5.77;;;4.40;;
19364;SDS011;9818;48.382;10.850;2022-12-07T02:10:55;5.10;;;4.50;;
19364;SDS011;9818;48.382;10.850;2022-12-07T02:13:25;7.20;;;4.57;;
19364;SDS011;9818;48.382;10.850;2022-12-07T02:16:00;5.97;;;5.03;;
19364;SDS011;9818;48.382;10.850;2022-12-07T02:18:48;6.30;;;4.70;;
19364;SDS011;9818;48.382;10.850;2022-12-07T02:21:29;5.60;;;4.60;;
19364;SDS011;9818;48.382;10.850;2022-12-07T02:24:18;5.40;;;4.87;;
19364;SDS011;9818;48.382;10.850;2022-12-07T02:30:08;6.20;;;5.00;;
19364;SDS011;9818;48.382;10.850;2022-12-07T02:32:40;5.73;;;4.70;;
19364;SDS011;9818;48.382;10.850;2022-12-07T02:35:15;5.90;;;4.40;;
19364;SDS011;9818;48.382;10.850;2022-12-07T02:37:48;6.30;;;5.23;;
19364;SDS011;9818;48.382;10.850;2022-12-07T02:40:25;6.43;;;5.13;;
19364;SDS011;9818;48.382;10.850;2022-12-07T02:42:58;5.90;;;4.97;;
19364;SDS011;9818;48.382;10.850;2022-12-07T02:45:34;6.63;;;5.00;;
19364;SDS011;9818;48.382;10.850;2022-12-07T02:48:07;5.80;;;4.40;;
19364;SDS011;9818;48.382;10.850;2022-12-07T02:50:38;5.93;;;4.60;;
19364;SDS011;9818;48.382;10.850;2022-12-07T02:56:01;5.77;;;4.80;;
19364;SDS011;9818;48.382;10.850;2022-12-07T02:58:37;5.03;;;4.53;;
19364;SDS011;9818;48.382;10.850;2022-12-07T03:01:22;6.37;;;5.30;;
19364;SDS011;9818;48.382;10.850;2022-12-07T03:04:02;5.77;;;4.83;;
19364;SDS011;9818;48.382;10.850;2022-12-07T03:06:40;5.33;;;4.53;;
19364;SDS011;9818;48.382;10.850;2022-12-07T03:09:18;5.23;;;4.67;;
19364;SDS011;9818;48.382;10.850;2022-12-07T03:11:55;6.17;;;4.57;;
19364;SDS011;9818;48.382;10.850;2022-12-07T03:14:34;5.33;;;4.57;;
19364;SDS011;9818;48.382;10.850;2022-12-07T03:17:10;5.70;;;4.77;;
19364;SDS011;9818;48.382;10.850;2022-12-07T03:19:43;7.33;;;5.43;;
19364;SDS011;9818;48.382;10.850;2022-12-07T03:22:14;5.93;;;4.90;;
19364;SDS011;9818;48.382;10.850;2022-12-07T03:24:44;7.07;;;5.20;;
19364;SDS011;9818;48.382;10.850;2022-12-07T03:27:18;6.77;;;4.90;;
19364;SDS011;9818;48.382;10.850;2022-12-07T03:29:52;6.00;;;4.93;;
19364;SDS011;9818;48.382;10.850;2022-12-07T03:32:30;5.03;;;4.53;;
19364;SDS011;9818;48.382;10.850;2022-12-07T03:35:03;5.97;;;4.80;;
19364;SDS011;9818;48.382;10.850;2022-12-07T03:37:38;6.37;;;5.37;;
19364;SDS011;9818;48.382;10.850;2022-12-07T03:40:11;6.07;;;4.57;;
19364;SDS011;9818;48.382;10.850;2022-12-07T03:42:44;6.63;;;5.30;;
19364;SDS011;9818;48.382;10.850;2022-12-07T03:45:13;6.47;;;4.50;;
19364;SDS011;9818;48.382;10.850;2022-12-07T03:47:46;7.03;;;4.97;;
19364;SDS011;9818;48.382;10.850;2022-12-07T03:50:21;5.90;;;4.67;;
19364;SDS011;9818;48.382;10.850;2022-12-07T03:52:56;6.23;;;5.37;;
19364;SDS011;9818;48.382;10.850;2022-12-07T03:55:31;6.23;;;4.80;;
19364;SDS011;9818;48.382;10.850;2022-12-07T03:58:03;6.00;;;5.27;;
19364;SDS011;9818;48.382;10.850;2022-12-07T04:00:34;8.40;;;4.70;;
19364;SDS011;9818;48.382;10.850;2022-12-07T04:03:05;6.47;;;4.67;;
19364;SDS011;9818;48.382;10.850;2022-12-07T04:05:34;6.83;;;4.80;;
19364;SDS011;9818;48.382;10.850;2022-12-07T04:08:03;5.77;;;4.90;;
19364;SDS011;9818;48.382;10.850;2022-12-07T04:10:32;5.30;;;4.37;;
19364;SDS011;9818;48.382;10.850;2022-12-07T04:13:01;5.57;;;4.87;;
19364;SDS011;9818;48.382;10.850;2022-12-07T04:15:29;5.93;;;4.53;;
19364;SDS011;9818;48.382;10.850;2022-12-07T04:17:58;6.73;;;4.80;;
19364;SDS011;9818;48.382;10.850;2022-12-07T04:20:29;6.27;;;5.37;;
19364;SDS011;9818;48.382;10.850;2022-12-07T04:22:58;6.63;;;5.20;;
19364;SDS011;9818;48.382;10.850;2022-12-07T04:25:26;5.67;;;4.60;;
19364;SDS011;9818;48.382;10.850;2022-12-07T04:27:55;6.73;;;5.10;;
19364;SDS011;9818;48.382;10.850;2022-12-07T04:30:24;6.70;;;4.97;;
19364;SDS011;9818;48.382;10.850;2022-12-07T04:32:52;6.87;;;5.70;;
19364;SDS011;9818;48.382;10.850;2022-12-07T04:35:21;6.73;;;5.37;;
19364;SDS011;9818;48.382;10.850;2022-12-07T04:37:52;6.97;;;5.43;;
19364;SDS011;9818;48.382;10.850;2022-12-07T04:40:21;6.67;;;5.00;;
19364;SDS011;9818;48.382;10.850;2022-12-07T04:42:49;7.10;;;5.57;;
19364;SDS011;9818;48.382;10.850;2022-12-07T04:45:18;6.93;;;5.50;;
19364;SDS011;9818;48.382;10.850;2022-12-07T04:47:47;6.00;;;5.33;;
19364;SDS011;9818;48.382;10.850;2022-12-07T04:50:15;6.03;;;5.33;;
19364;SDS011;9818;48.382;10.850;2022-12-07T04:52:44;6.40;;;4.77;;
19364;SDS011;9818;48.382;10.850;2022-12-07T04:55:15;7.50;;;5.60;;
19364;SDS011;9818;48.382;10.850;2022-12-07T04:57:44;7.43;;;5.40;;
19364;SDS011;9818;48.382;10.850;2022-12-07T05:00:13;6.00;;;5.13;;
19364;SDS011;9818;48.382;10.850;2022-12-07T05:02:42;6.93;;;5.53;;
19364;SDS011;9818;48.382;10.850;2022-12-07T05:05:10;7.10;;;5.63;;
19364;SDS011;9818;48.382;10.850;2022-12-07T05:07:39;7.00;;;5.50;;
19364;SDS011;9818;48.382;10.850;2022-12-07T05:10:08;6.63;;;5.87;;
19364;SDS011;9818;48.382;10.850;2022-12-07T05:12:40;6.40;;;5.13;;
19364;SDS011;9818;48.382;10.850;2022-12-07T05:15:09;7.00;;;5.17;;
19364;SDS011;9818;48.382;10.850;2022-12-07T05:17:38;7.70;;;5.47;;
19364;SDS011;9818;48.382;10.850;2022-12-07T05:20:07;6.53;;;5.30;;
19364;SDS011;9818;48.382;10.850;2022-12-07T05:22:36;6.53;;;5.43;;
19364;SDS011;9818;48.382;10.850;2022-12-07T05:25:05;7.90;;;6.30;;
19364;SDS011;9818;48.382;10.850;2022-12-07T05:27:34;7.07;;;5.57;;
19364;SDS011;9818;48.382;10.850;2022-12-07T05:30:06;6.97;;;5.87;;
19364;SDS011;9818;48.382;10.850;2022-12-07T05:32:35;8.53;;;6.17;;
19364;SDS011;9818;48.382;10.850;2022-12-07T05:35:04;7.10;;;5.77;;
19364;SDS011;9818;48.382;10.850;2022-12-07T05:37:34;7.10;;;5.57;;
19364;SDS011;9818;48.382;10.850;2022-12-07T05:40:03;7.07;;;5.57;;
19364;SDS011;9818;48.382;10.850;2022-12-07T05:42:33;7.97;;;5.80;;
19364;SDS011;9818;48.382;10.850;2022-12-07T05:45:02;6.83;;;5.63;;
19364;SDS011;9818;48.382;10.850;2022-12-07T05:47:34;7.67;;;5.73;;
19364;SDS011;9818;48.382;10.850;2022-12-07T05:50:03;7.97;;;6.07;;
19364;SDS011;9818;48.382;10.850;2022-12-07T05:52:33;7.97;;;6.23;;
19364;SDS011;9818;48.382;10.850;2022-12-07T05:55:02;7.53;;;5.80;;
19364;SDS011;9818;48.382;10.850;2022-12-07T05:57:32;6.97;;;5.93;;
19364;SDS011;9818;48.382;10.850;2022-12-07T06:00:00;8.83;;;6.43;;
19364;SDS011;9818;48.382;10.850;2022-12-07T06:02:30;7.53;;;6.03;;
19364;SDS011;9818;48.382;10.850;2022-12-07T06:04:59;7.27;;;5.50;;
19364;SDS011;9818;48.382;10.850;2022-12-07T06:07:27;6.67;;;5.70;;
19364;SDS011;9818;48.382;10.850;2022-12-07T06:09:56;8.57;;;5.97;;
19364;SDS011;9818;48.382;10.850;2022-12-07T06:12:25;7.33;;;5.87;;
19364;SDS011;9818;48.382;10.850;2022-12-07T06:14:59;6.80;;;5.67;;
19364;SDS011;9818;48.382;10.850;2022-12-07T06:17:31;7.20;;;5.77;;
19364;SDS011;9818;48.382;10.850;2022-12-07T06:20:00;7.90;;;6.00;;
19364;SDS011;9818;48.382;10.850;2022-12-07T06:22:28;7.57;;;5.80;;
19364;SDS011;9818;48.382;10.850;2022-12-07T06:24:57;7.83;;;5.77;;
19364;SDS011;9818;48.382;10.850;2022-12-07T06:27:26;8.53;;;6.33;;
19364;SDS011;9818;48.382;10.850;2022-12-07T06:29:55;9.17;;;6.80;;
19364;SDS011;9818;48.382;10.850;2022-12-07T06:32:23;11.30;;;6.43;;
19364;SDS011;9818;48.382;10.850;2022-12-07T06:34:55;8.07;;;6.63;;
19364;SDS011;9818;48.382;10.850;2022-12-07T06:37:23;8.53;;;6.13;;
19364;SDS011;9818;48.382;10.850;2022-12-07T06:39:52;7.47;;;5.73;;
19364;SDS011;9818;48.382;10.850;2022-12-07T06:42:21;8.87;;;6.20;;
19364;SDS011;9818;48.382;10.850;2022-12-07T06:44:49;8.97;;;6.00;;
19364;SDS011;9818;48.382;10.850;2022-12-07T06:47:18;8.53;;;6.23;;
19364;SDS011;9818;48.382;10.850;2022-12-07T06:49:47;9.07;;;6.63;;
19364;SDS011;9818;48.382;10.850;2022-12-07T06:52:18;8.90;;;6.53;;
19364;SDS011;9818;48.382;10.850;2022-12-07T06:54:47;8.87;;;6.50;;
19364;SDS011;9818;48.382;10.850;2022-12-07T06:57:15;9.33;;;6.63;;
19364;SDS011;9818;48.382;10.850;2022-12-07T06:59:45;10.63;;;7.60;;
19364;SDS011;9818;48.382;10.850;2022-12-07T07:02:13;9.63;;;6.60;;
19364;SDS011;9818;48.382;10.850;2022-12-07T07:04:43;9.20;;;6.67;;
19364;SDS011;9818;48.382;10.850;2022-12-07T07:07:11;11.37;;;7.50;;
19364;SDS011;9818;48.382;10.850;2022-12-07T07:09:43;9.37;;;6.73;;
19364;SDS011;9818;48.382;10.850;2022-12-07T07:12:11;9.00;;;6.67;;
19364;SDS011;9818;48.382;10.850;2022-12-07T07:14:40;9.90;;;7.03;;
19364;SDS011;9818;48.382;10.850;2022-12-07T07:17:08;9.80;;;7.07;;
19364;SDS011;9818;48.382;10.850;2022-12-07T07:19:37;12.03;;;7.90;;
19364;SDS011;9818;48.382;10.850;2022-12-07T07:22:06;11.10;;;7.47;;
19364;SDS011;9818;48.382;10.850;2022-12-07T07:24:35;9.93;;;7.00;;
19364;SDS011;9818;48.382;10.850;2022-12-07T07:27:06;11.83;;;7.73;;
19364;SDS011;9818;48.382;10.850;2022-12-07T07:29:35;11.60;;;7.80;;
19364;SDS011;9818;48.382;10.850;2022-12-07T07:32:03;12.60;;;7.47;;
19364;SDS011;9818;48.382;10.850;2022-12-07T07:34:32;13.23;;;8.27;;
19364;SDS011;9818;48.382;10.850;2022-12-07T07:37:01;10.50;;;6.80;;
19364;SDS011;9818;48.382;10.850;2022-12-07T07:39:30;12.67;;;8.27;;
19364;SDS011;9818;48.382;10.850;2022-12-07T07:41:59;10.57;;;7.80;;
19364;SDS011;9818;48.382;10.850;2022-12-07T07:44:30;10.33;;;7.10;;
19364;SDS011;9818;48.382;10.850;2022-12-07T07:46:59;11.63;;;8.50;;
19364;SDS011;9818;48.382;10.850;2022-12-07T07:49:27;11.83;;;8.37;;
19364;SDS011;9818;48.382;10.850;2022-12-07T07:51:56;10.97;;;7.77;;
19364;SDS011;9818;48.382;10.850;2022-12-07T07:54:25;11.07;;;7.43;;
19364;SDS011;9818;48.382;10.850;2022-12-07T07:56:53;10.67;;;8.17;;
19364;SDS011;9818;48.382;10.850;2022-12-07T07:59:22;10.23;;;7.50;;
19364;SDS011;9818;48.382;10.850;2022-12-07T08:01:54;12.27;;;8.33;;
19364;SDS011;9818;48.382;10.850;2022-12-07T08:04:22;12.77;;;8.13;;
19364;SDS011;9818;48.382;10.850;2022-12-07T08:06:51;9.43;;;7.23;;
19364;SDS011;9818;48.382;10.850;2022-12-07T08:09:20;11.10;;;7.50;;
19364;SDS011;9818;48.382;10.850;2022-12-07T08:11:48;10.27;;;7.30;;
19364;SDS011;9818;48.382;10.850;2022-12-07T08:14:17;13.73;;;7.90;;
19364;SDS011;9818;48.382;10.850;2022-12-07T08:16:46;10.40;;;7.67;;
19364;SDS011;9818;48.382;10.850;2022-12-07T08:19:17;11.70;;;7.97;;
19364;SDS011;9818;48.382;10.850;2022-12-07T08:21:45;11.67;;;8.33;;
19364;SDS011;9818;48.382;10.850;2022-12-07T08:24:14;13.37;;;9.13;;
19364;SDS011;9818;48.382;10.850;2022-12-07T08:26:43;11.40;;;8.30;;
19364;SDS011;9818;48.382;10.850;2022-12-07T08:29:12;11.60;;;8.20;;
19364;SDS011;9818;48.382;10.850;2022-12-07T08:31:40;12.60;;;8.20;;
19364;SDS011;9818;48.382;10.850;2022-12-07T08:34:09;11.53;;;8.27;;
19364;SDS011;9818;48.382;10.850;2022-12-07T08:36:41;11.57;;;8.60;;
19364;SDS011;9818;48.382;10.850;2022-12-07T08:39:09;12.07;;;8.97;;
19364;SDS011;9818;48.382;10.850;2022-12-07T08:41:38;13.30;;;9.33;;
19364;SDS011;9818;48.382;10.850;2022-12-07T08:46:36;15.47;;;10.43;;
19364;SDS011;9818;48.382;10.850;2022-12-07T08:49:08;14.17;;;10.60;;
19364;SDS011;9818;48.382;10.850;2022-12-07T08:51:42;13.67;;;10.77;;
19364;SDS011;9818;48.382;10.850;2022-12-07T08:54:11;12.73;;;10.00;;
19364;SDS011;9818;48.382;10.850;2022-12-07T08:56:42;14.43;;;10.17;;
19364;SDS011;9818;48.382;10.850;2022-12-07T08:59:12;11.50;;;8.80;;
19364;SDS011;9818;48.382;10.850;2022-12-07T09:01:43;12.63;;;9.40;;
19364;SDS011;9818;48.382;10.850;2022-12-07T09:06:43;18.60;;;12.35;;
19364;SDS011;9818;48.382;10.850;2022-12-07T09:09:12;11.60;;;9.07;;
19364;SDS011;9818;48.382;10.850;2022-12-07T09:11:42;10.47;;;8.27;;
19364;SDS011;9818;48.382;10.850;2022-12-07T09:14:11;11.33;;;9.33;;
19364;SDS011;9818;48.382;10.850;2022-12-07T09:16:40;11.53;;;9.17;;
19364;SDS011;9818;48.382;10.850;2022-12-07T09:19:09;10.17;;;8.47;;
19364;SDS011;9818;48.382;10.850;2022-12-07T09:21:37;10.97;;;8.23;;
19364;SDS011;9818;48.382;10.850;2022-12-07T09:24:09;10.30;;;7.50;;
19364;SDS011;9818;48.382;10.850;2022-12-07T09:31:36;9.20;;;7.03;;
19364;SDS011;9818;48.382;10.850;2022-12-07T09:34:05;8.37;;;7.10;;
19364;SDS011;9818;48.382;10.850;2022-12-07T09:36:33;8.93;;;7.53;;
19364;SDS011;9818;48.382;10.850;2022-12-07T09:39:02;8.67;;;7.30;;
19364;SDS011;9818;48.382;10.850;2022-12-07T09:41:36;7.17;;;6.30;;
19364;SDS011;9818;48.382;10.850;2022-12-07T09:44:06;7.27;;;6.53;;
19364;SDS011;9818;48.382;10.850;2022-12-07T09:46:40;7.73;;;6.53;;
19364;SDS011;9818;48.382;10.850;2022-12-07T09:49:11;7.73;;;6.20;;
19364;SDS011;9818;48.382;10.850;2022-12-07T09:51:42;7.73;;;6.63;;
19364;SDS011;9818;48.382;10.850;2022-12-07T09:54:12;6.90;;;5.70;;
19364;SDS011;9818;48.382;10.850;2022-12-07T09:56:44;6.43;;;5.83;;
19364;SDS011;9818;48.382;10.850;2022-12-07T09:59:14;6.60;;;5.80;;
19364;SDS011;9818;48.382;10.850;2022-12-07T10:01:47;6.90;;;5.77;;
19364;SDS011;9818;48.382;10.850;2022-12-07T10:09:17;6.60;;;5.90;;
19364;SDS011;9818;48.382;10.850;2022-12-07T10:14:33;7.73;;;4.60;;
19364;SDS011;9818;48.382;10.850;2022-12-07T10:17:08;5.73;;;4.50;;
19364;SDS011;9818;48.382;10.850;2022-12-07T10:25:30;5.40;;;4.73;;
19364;SDS011;9818;48.382;10.850;2022-12-07T10:28:08;6.53;;;5.13;;
19364;SDS011;9818;48.382;10.850;2022-12-07T10:33:29;4.80;;;4.30;;
19364;SDS011;9818;48.382;10.850;2022-12-07T10:38:29;5.93;;;4.50;;
19364;SDS011;9818;48.382;10.850;2022-12-07T18:19:02;9.20;;;5.43;;
19364;SDS011;9818;48.382;10.850;2022-12-07T18:21:34;7.97;;;5.40;;
19364;SDS011;9818;48.382;10.850;2022-12-07T18:24:03;9.70;;;6.00;;
19364;SDS011;9818;48.382;10.850;2022-12-07T18:48:55;11.40;;;5.55;;
19364;SDS011;9818;48.382;10.850;2022-12-07T19:04:03;9.63;;;6.47;;
19364;SDS011;9818;48.382;10.850;2022-12-07T19:06:33;8.53;;;6.27;;
19364;SDS011;9818;48.382;10.850;2022-12-07T19:09:02;11.87;;;7.43;;
19364;SDS011;9818;48.382;10.850;2022-12-07T19:11:34;12.47;;;7.63;;
19364;SDS011;9818;48.382;10.850;2022-12-07T19:14:21;10.57;;;7.30;;
19364;SDS011;9818;48.382;10.850;2022-12-07T19:16:52;10.80;;;7.73;;
19364;SDS011;9818;48.382;10.850;2022-12-07T19:19:24;11.03;;;7.37;;
19364;SDS011;9818;48.382;10.850;2022-12-07T19:21:56;13.10;;;7.67;;
19364;SDS011;9818;48.382;10.850;2022-12-07T19:24:24;11.03;;;7.70;;
19364;SDS011;9818;48.382;10.850;2022-12-07T19:26:56;11.57;;;7.90;;
19364;SDS011;9818;48.382;10.850;2022-12-07T19:29:27;15.53;;;9.73;;
19364;SDS011;9818;48.382;10.850;2022-12-07T19:31:56;28.90;;;16.60;;
19364;SDS011;9818;48.382;10.850;2022-12-07T19:34:25;15.40;;;9.70;;
19364;SDS011;9818;48.382;10.850;2022-12-07T19:36:54;15.23;;;8.83;;
19364;SDS011;9818;48.382;10.850;2022-12-07T19:39:22;11.20;;;7.57;;
19364;SDS011;9818;48.382;10.850;2022-12-07T19:41:51;10.97;;;7.20;;
19364;SDS011;9818;48.382;10.850;2022-12-07T19:44:23;11.70;;;6.80;;
19364;SDS011;9818;48.382;10.850;2022-12-07T19:46:54;10.10;;;6.97;;
19364;SDS011;9818;48.382;10.850;2022-12-07T19:49:24;13.70;;;7.33;;
19364;SDS011;9818;48.382;10.850;2022-12-07T19:51:55;10.30;;;6.40;;
19364;SDS011;9818;48.382;10.850;2022-12-07T19:54:26;7.83;;;5.50;;
19364;SDS011;9818;48.382;10.850;2022-12-07T19:56:56;7.93;;;5.30;;
19364;SDS011;9818;48.382;10.850;2022-12-07T19:59:28;10.03;;;5.47;;
19364;SDS011;9818;48.382;10.850;2022-12-07T20:01:57;8.00;;;5.23;;
19364;SDS011;9818;48.382;10.850;2022-12-07T20:04:27;8.77;;;6.00;;
19364;SDS011;9818;48.382;10.850;2022-12-07T20:06:59;7.23;;;5.13;;
19364;SDS011;9818;48.382;10.850;2022-12-07T20:09:28;8.07;;;5.40;;
19364;SDS011;9818;48.382;10.850;2022-12-07T20:11:57;7.30;;;5.37;;
19364;SDS011;9818;48.382;10.850;2022-12-07T20:14:40;7.70;;;5.70;;
19364;SDS011;9818;48.382;10.850;2022-12-07T20:17:09;6.67;;;5.37;;
19364;SDS011;9818;48.382;10.850;2022-12-07T20:19:38;7.60;;;5.60;;
19364;SDS011;9818;48.382;10.850;2022-12-07T20:22:07;9.33;;;6.50;;
19364;SDS011;9818;48.382;10.850;2022-12-07T20:24:35;12.10;;;7.27;;
19364;SDS011;9818;48.382;10.850;2022-12-07T20:27:04;10.10;;;6.40;;
19364;SDS011;9818;48.382;10.850;2022-12-07T20:29:33;7.83;;;5.87;;
19364;SDS011;9818;48.382;10.850;2022-12-07T20:32:04;6.23;;;4.77;;
19364;SDS011;9818;48.382;10.850;2022-12-07T20:34:33;6.20;;;4.77;;
19364;SDS011;9818;48.382;10.850;2022-12-07T20:37:02;8.53;;;5.73;;
19364;SDS011;9818;48.382;10.850;2022-12-07T20:39:30;8.37;;;5.87;;
19364;SDS011;9818;48.382;10.850;2022-12-07T20:41:59;8.30;;;6.03;;
19364;SDS011;9818;48.382;10.850;2022-12-07T20:44:40;8.97;;;6.13;;
19364;SDS011;9818;48.382;10.850;2022-12-07T20:47:11;7.50;;;5.60;;
19364;SDS011;9818;48.382;10.850;2022-12-07T20:49:40;8.53;;;6.30;;
19364;SDS011;9818;48.382;10.850;2022-12-07T20:52:08;8.67;;;6.10;;
19364;SDS011;9818;48.382;10.850;2022-12-07T20:54:37;8.07;;;5.60;;
19364;SDS011;9818;48.382;10.850;2022-12-07T20:57:06;7.93;;;5.73;;
19364;SDS011;9818;48.382;10.850;2022-12-07T20:59:35;7.83;;;5.93;;
19364;SDS011;9818;48.382;10.850;2022-12-07T21:02:04;8.83;;;6.03;;
19364;SDS011;9818;48.382;10.850;2022-12-07T21:04:35;9.20;;;6.47;;
19364;SDS011;9818;48.382;10.850;2022-12-07T21:07:03;7.87;;;6.33;;
19364;SDS011;9818;48.382;10.850;2022-12-07T21:09:32;9.40;;;6.27;;
19364;SDS011;9818;48.382;10.850;2022-12-07T21:12:01;7.77;;;6.23;;
19364;SDS011;9818;48.382;10.850;2022-12-07T21:14:29;8.93;;;6.33;;
19364;SDS011;9818;48.382;10.850;2022-12-07T21:16:58;10.33;;;6.93;;
19364;SDS011;9818;48.382;10.850;2022-12-07T21:19:27;11.10;;;6.33;;
19364;SDS011;9818;48.382;10.850;2022-12-07T21:21:58;10.67;;;6.77;;
19364;SDS011;9818;48.382;10.850;2022-12-07T21:24:26;9.90;;;6.80;;
19364;SDS011;9818;48.382;10.850;2022-12-07T21:26:55;11.97;;;7.20;;
19364;SDS011;9818;48.382;10.850;2022-12-07T21:29:24;8.93;;;6.90;;
19364;SDS011;9818;48.382;10.850;2022-12-07T21:31:52;9.43;;;6.60;;
19364;SDS011;9818;48.382;10.850;2022-12-07T21:34:21;8.47;;;6.03;;
19364;SDS011;9818;48.382;10.850;2022-12-07T21:36:50;7.97;;;5.70;;
19364;SDS011;9818;48.382;10.850;2022-12-07T21:39:21;8.93;;;6.30;;
19364;SDS011;9818;48.382;10.850;2022-12-07T21:41:49;9.27;;;6.27;;
19364;SDS011;9818;48.382;10.850;2022-12-07T21:44:18;10.43;;;6.20;;
19364;SDS011;9818;48.382;10.850;2022-12-07T21:46:47;9.90;;;6.17;;
19364;SDS011;9818;48.382;10.850;2022-12-07T21:49:15;10.70;;;6.23;;
19364;SDS011;9818;48.382;10.850;2022-12-07T21:51:44;9.37;;;5.67;;
19364;SDS011;9818;48.382;10.850;2022-12-07T21:54:13;9.77;;;6.07;;
19364;SDS011;9818;48.382;10.850;2022-12-07T21:56:44;9.30;;;6.37;;
19364;SDS011;9818;48.382;10.850;2022-12-07T21:59:14;9.97;;;6.57;;
19364;SDS011;9818;48.382;10.850;2022-12-07T22:01:45;10.23;;;6.13;;
19364;SDS011;9818;48.382;10.850;2022-12-07T22:04:14;11.10;;;6.37;;
19364;SDS011;9818;48.382;10.850;2022-12-07T22:06:44;8.83;;;6.10;;
19364;SDS011;9818;48.382;10.850;2022-12-07T22:09:14;11.77;;;7.37;;
19364;SDS011;9818;48.382;10.850;2022-12-07T22:11:46;10.57;;;6.77;;
19364;SDS011;9818;48.382;10.850;2022-12-07T22:14:15;9.93;;;6.50;;
19364;SDS011;9818;48.382;10.850;2022-12-07T22:16:57;11.43;;;7.03;;
19364;SDS011;9818;48.382;10.850;2022-12-07T22:19:26;12.10;;;6.67;;
19364;SDS011;9818;48.382;10.850;2022-12-07T22:21:55;11.07;;;7.03;;
19364;SDS011;9818;48.382;10.850;2022-12-07T22:24:23;10.33;;;7.03;;
19364;SDS011;9818;48.382;10.850;2022-12-07T22:26:55;12.70;;;6.93;;
19364;SDS011;9818;48.382;10.850;2022-12-07T22:29:23;8.33;;;6.10;;
19364;SDS011;9818;48.382;10.850;2022-12-07T22:31:52;9.93;;;7.30;;
19364;SDS011;9818;48.382;10.850;2022-12-07T22:34:21;8.70;;;6.37;;
19364;SDS011;9818;48.382;10.850;2022-12-07T22:36:49;9.70;;;6.90;;
19364;SDS011;9818;48.382;10.850;2022-12-07T22:39:18;9.00;;;6.23;;
19364;SDS011;9818;48.382;10.850;2022-12-07T22:41:47;12.07;;;6.70;;
19364;SDS011;9818;48.382;10.850;2022-12-07T22:44:18;9.43;;;5.97;;
19364;SDS011;9818;48.382;10.850;2022-12-07T22:46:47;10.83;;;6.80;;
19364;SDS011;9818;48.382;10.850;2022-12-07T22:49:15;10.67;;;6.73;;
19364;SDS011;9818;48.382;10.850;2022-12-07T22:51:44;9.13;;;6.23;;
19364;SDS011;9818;48.382;10.850;2022-12-07T22:54:14;10.20;;;6.60;;
19364;SDS011;9818;48.382;10.850;2022-12-07T22:56:44;10.37;;;6.90;;
19364;SDS011;9818;48.382;10.850;2022-12-07T22:59:12;12.27;;;7.27;;
19364;SDS011;9818;48.382;10.850;2022-12-07T23:01:44;11.83;;;7.47;;
19364;SDS011;9818;48.382;10.850;2022-12-07T23:04:13;10.10;;;7.20;;
19364;SDS011;9818;48.382;10.850;2022-12-07T23:06:41;10.07;;;6.97;;
19364;SDS011;9818;48.382;10.850;2022-12-07T23:09:11;12.13;;;7.50;;
19364;SDS011;9818;48.382;10.850;2022-12-07T23:11:40;9.73;;;6.63;;
19364;SDS011;9818;48.382;10.850;2022-12-07T23:14:23;9.93;;;6.77;;
19364;SDS011;9818;48.382;10.850;2022-12-07T23:16:56;10.60;;;7.30;;
19364;SDS011;9818;48.382;10.850;2022-12-07T23:19:25;10.63;;;6.87;;
19364;SDS011;9818;48.382;10.850;2022-12-07T23:21:54;9.73;;;7.00;;
19364;SDS011;9818;48.382;10.850;2022-12-07T23:24:23;11.83;;;7.27;;
19364;SDS011;9818;48.382;10.850;2022-12-07T23:26:52;12.57;;;7.70;;
19364;SDS011;9818;48.382;10.850;2022-12-07T23:29:21;11.67;;;7.37;;
19364;SDS011;9818;48.382;10.850;2022-12-07T23:31:50;11.30;;;7.13;;
19364;SDS011;9818;48.382;10.850;2022-12-07T23:34:21;10.07;;;7.53;;
19364;SDS011;9818;48.382;10.850;2022-12-07T23:36:50;10.70;;;6.63;;
19364;SDS011;9818;48.382;10.850;2022-12-07T23:39:18;9.87;;;7.20;;
19364;SDS011;9818;48.382;10.850;2022-12-07T23:41:47;10.37;;;6.90;;
19364;SDS011;9818;48.382;10.850;2022-12-07T23:44:16;10.40;;;6.93;;
19364;SDS011;9818;48.382;10.850;2022-12-07T23:46:45;9.63;;;6.70;;
19364;SDS011;9818;48.382;10.850;2022-12-07T23:49:14;11.10;;;7.63;;
19364;SDS011;9818;48.382;10.850;2022-12-07T23:51:45;10.23;;;6.57;;
19364;SDS011;9818;48.382;10.850;2022-12-07T23:54:14;9.13;;;6.80;;
19364;SDS011;9818;48.382;10.850;2022-12-07T23:56:43;10.10;;;6.67;;
19364;SDS011;9818;48.382;10.850;2022-12-07T23:59:11;9.90;;;6.77;;
